Bucks, Ohio
Current Conditions -  °F | °C
As of 7:02 PM on Thursday 27 Nov 2014 (Local Time) from KPHD Reporting Station
Light Snow Light Snow  
Wind Chill: 25°   Ceiling: 3500
Heat Index: 30°   Visibility: 3mi
Dew Point: 26°   Wind: 5mph
Humidity: 85%   Direction: 250°WSW
Pressure: 30.24"   Gusts: NA
Location:  40.4489°N, 81.6949°W
Report Text: KPHD 280002Z AUTO 25004KT 3SM -SN BR FEW014 FEW027 OVC035 M01/M03 A3024 RMK AO2 P0000 T10111033
Loading
Personal Weather Stations






























Interactive Weather Map New forecast layout! Learn more

10-Day Weather Forecast

Advertisements
Track Severe Weather on mobile